sensor_id;sensor_type;location;lat;lon;timestamp;P1;durP1;ratioP1;P2;durP2;ratioP2
67140;SDS011;54058;52.010;5.546;2023-03-19T00:01:32;4.28;;;1.60;;
67140;SDS011;54058;52.010;5.546;2023-03-19T00:04:00;3.30;;;1.40;;
67140;SDS011;54058;52.010;5.546;2023-03-19T00:06:34;1.40;;;1.30;;
67140;SDS011;54058;52.010;5.546;2023-03-19T00:09:00;2.20;;;1.55;;
67140;SDS011;54058;52.010;5.546;2023-03-19T00:11:27;3.53;;;1.50;;
67140;SDS011;54058;52.010;5.546;2023-03-19T00:13:56;2.97;;;1.30;;
67140;SDS011;54058;52.010;5.546;2023-03-19T00:16:24;2.05;;;1.30;;
67140;SDS011;54058;52.010;5.546;2023-03-19T00:18:50;1.35;;;1.25;;
67140;SDS011;54058;52.010;5.546;2023-03-19T00:21:18;4.20;;;1.50;;
67140;SDS011;54058;52.010;5.546;2023-03-19T00:23:46;2.80;;;1.25;;
67140;SDS011;54058;52.010;5.546;2023-03-19T00:26:12;1.40;;;1.25;;
67140;SDS011;54058;52.010;5.546;2023-03-19T00:28:41;2.05;;;1.23;;
67140;SDS011;54058;52.010;5.546;2023-03-19T00:31:10;3.58;;;1.45;;
67140;SDS011;54058;52.010;5.546;2023-03-19T00:33:38;1.92;;;1.20;;
67140;SDS011;54058;52.010;5.546;2023-03-19T00:36:05;3.63;;;1.60;;
67140;SDS011;54058;52.010;5.546;2023-03-19T00:38:35;3.45;;;1.40;;
67140;SDS011;54058;52.010;5.546;2023-03-19T00:41:06;1.58;;;1.48;;
67140;SDS011;54058;52.010;5.546;2023-03-19T00:43:41;2.63;;;1.40;;
67140;SDS011;54058;52.010;5.546;2023-03-19T00:46:13;2.55;;;1.20;;
67140;SDS011;54058;52.010;5.546;2023-03-19T00:48:41;1.92;;;1.25;;
67140;SDS011;54058;52.010;5.546;2023-03-19T00:51:17;2.05;;;1.17;;
67140;SDS011;54058;52.010;5.546;2023-03-19T00:53:46;2.42;;;1.17;;
67140;SDS011;54058;52.010;5.546;2023-03-19T00:56:22;1.55;;;1.13;;
67140;SDS011;54058;52.010;5.546;2023-03-19T00:58:50;2.78;;;1.20;;
67140;SDS011;54058;52.010;5.546;2023-03-19T01:01:16;1.65;;;1.33;;
67140;SDS011;54058;52.010;5.546;2023-03-19T01:03:57;2.40;;;1.42;;
67140;SDS011;54058;52.010;5.546;2023-03-19T01:06:25;1.15;;;1.05;;
67140;SDS011;54058;52.010;5.546;2023-03-19T01:08:53;4.00;;;1.80;;
67140;SDS011;54058;52.010;5.546;2023-03-19T01:11:19;2.47;;;1.40;;
67140;SDS011;54058;52.010;5.546;2023-03-19T01:13:50;2.35;;;1.30;;
67140;SDS011;54058;52.010;5.546;2023-03-19T01:16:22;3.35;;;1.30;;
67140;SDS011;54058;52.010;5.546;2023-03-19T01:18:51;1.52;;;1.25;;
67140;SDS011;54058;52.010;5.546;2023-03-19T01:21:17;2.50;;;1.80;;
67140;SDS011;54058;52.010;5.546;2023-03-19T01:23:43;2.53;;;1.60;;
67140;SDS011;54058;52.010;5.546;2023-03-19T01:26:12;1.83;;;1.45;;
67140;SDS011;54058;52.010;5.546;2023-03-19T01:28:43;1.88;;;1.42;;
67140;SDS011;54058;52.010;5.546;2023-03-19T01:31:11;3.15;;;1.58;;
67140;SDS011;54058;52.010;5.546;2023-03-19T01:33:37;3.50;;;1.40;;
67140;SDS011;54058;52.010;5.546;2023-03-19T01:36:03;4.00;;;1.60;;
67140;SDS011;54058;52.010;5.546;2023-03-19T01:38:36;1.45;;;1.35;;
67140;SDS011;54058;52.010;5.546;2023-03-19T01:41:02;2.35;;;1.70;;
67140;SDS011;54058;52.010;5.546;2023-03-19T01:43:30;2.60;;;1.67;;
67140;SDS011;54058;52.010;5.546;2023-03-19T01:46:00;2.87;;;1.67;;
67140;SDS011;54058;52.010;5.546;2023-03-19T01:48:52;1.42;;;1.30;;
67140;SDS011;54058;52.010;5.546;2023-03-19T01:51:24;2.20;;;1.50;;
67140;SDS011;54058;52.010;5.546;2023-03-19T01:53:57;2.10;;;1.85;;
67140;SDS011;54058;52.010;5.546;2023-03-19T01:56:29;1.42;;;1.33;;
67140;SDS011;54058;52.010;5.546;2023-03-19T02:05:09;2.13;;;1.42;;
67140;SDS011;54058;52.010;5.546;2023-03-19T02:07:41;1.52;;;1.33;;
67140;SDS011;54058;52.010;5.546;2023-03-19T02:12:36;1.55;;;1.33;;
67140;SDS011;54058;52.010;5.546;2023-03-19T02:15:10;3.27;;;1.50;;
67140;SDS011;54058;52.010;5.546;2023-03-19T02:17:36;3.03;;;1.50;;
67140;SDS011;54058;52.010;5.546;2023-03-19T02:20:13;2.50;;;1.90;;
67140;SDS011;54058;52.010;5.546;2023-03-19T02:26:02;2.85;;;1.80;;
67140;SDS011;54058;52.010;5.546;2023-03-19T02:28:36;3.33;;;2.00;;
67140;SDS011;54058;52.010;5.546;2023-03-19T02:31:08;2.45;;;1.50;;
67140;SDS011;54058;52.010;5.546;2023-03-19T02:34:02;2.05;;;1.52;;
67140;SDS011;54058;52.010;5.546;2023-03-19T02:36:59;2.45;;;1.90;;
67140;SDS011;54058;52.010;5.546;2023-03-19T02:39:47;3.78;;;1.73;;
67140;SDS011;54058;52.010;5.546;2023-03-19T02:42:22;2.30;;;1.90;;
67140;SDS011;54058;52.010;5.546;2023-03-19T02:44:50;3.03;;;1.90;;
67140;SDS011;54058;52.010;5.546;2023-03-19T02:47:16;3.95;;;2.00;;
67140;SDS011;54058;52.010;5.546;2023-03-19T02:49:42;3.65;;;2.47;;
67140;SDS011;54058;52.010;5.546;2023-03-19T02:52:07;5.15;;;2.45;;
67140;SDS011;54058;52.010;5.546;2023-03-19T02:54:33;3.88;;;2.35;;
67140;SDS011;54058;52.010;5.546;2023-03-19T02:56:59;3.75;;;1.77;;
67140;SDS011;54058;52.010;5.546;2023-03-19T02:59:25;4.65;;;2.03;;
67140;SDS011;54058;52.010;5.546;2023-03-19T03:01:50;5.22;;;2.10;;
67140;SDS011;54058;52.010;5.546;2023-03-19T03:04:16;3.72;;;2.17;;
67140;SDS011;54058;52.010;5.546;2023-03-19T03:06:42;3.00;;;2.25;;
67140;SDS011;54058;52.010;5.546;2023-03-19T03:09:09;2.60;;;1.92;;
67140;SDS011;54058;52.010;5.546;2023-03-19T03:14:01;2.10;;;1.60;;
67140;SDS011;54058;52.010;5.546;2023-03-19T03:16:27;3.95;;;2.20;;
67140;SDS011;54058;52.010;5.546;2023-03-19T03:18:52;5.05;;;2.30;;
67140;SDS011;54058;52.010;5.546;2023-03-19T03:21:18;3.25;;;2.20;;
67140;SDS011;54058;52.010;5.546;2023-03-19T03:23:46;4.40;;;2.08;;
67140;SDS011;54058;52.010;5.546;2023-03-19T03:26:12;5.43;;;2.38;;
67140;SDS011;54058;52.010;5.546;2023-03-19T03:28:38;2.53;;;2.33;;
67140;SDS011;54058;52.010;5.546;2023-03-19T03:31:04;2.53;;;2.28;;
67140;SDS011;54058;52.010;5.546;2023-03-19T03:33:30;3.28;;;2.38;;
67140;SDS011;54058;52.010;5.546;2023-03-19T03:35:57;6.43;;;2.70;;
67140;SDS011;54058;52.010;5.546;2023-03-19T03:38:22;3.20;;;2.67;;
67140;SDS011;54058;52.010;5.546;2023-03-19T03:40:49;4.43;;;3.10;;
67140;SDS011;54058;52.010;5.546;2023-03-19T03:43:16;3.83;;;2.90;;
67140;SDS011;54058;52.010;5.546;2023-03-19T03:45:44;4.15;;;2.78;;
67140;SDS011;54058;52.010;5.546;2023-03-19T03:48:09;3.60;;;2.97;;
67140;SDS011;54058;52.010;5.546;2023-03-19T03:50:37;4.95;;;3.42;;
67140;SDS011;54058;52.010;5.546;2023-03-19T03:53:02;4.75;;;2.95;;
67140;SDS011;54058;52.010;5.546;2023-03-19T03:55:29;4.30;;;3.33;;
67140;SDS011;54058;52.010;5.546;2023-03-19T03:57:54;5.93;;;3.50;;
67140;SDS011;54058;52.010;5.546;2023-03-19T04:00:20;4.43;;;3.45;;
67140;SDS011;54058;52.010;5.546;2023-03-19T04:02:46;4.03;;;3.42;;
67140;SDS011;54058;52.010;5.546;2023-03-19T04:05:11;6.30;;;4.13;;
67140;SDS011;54058;52.010;5.546;2023-03-19T04:07:37;4.63;;;3.42;;
67140;SDS011;54058;52.010;5.546;2023-03-19T04:10:04;4.28;;;3.75;;
67140;SDS011;54058;52.010;5.546;2023-03-19T04:12:30;7.18;;;4.07;;
67140;SDS011;54058;52.010;5.546;2023-03-19T04:14:56;6.17;;;4.53;;
67140;SDS011;54058;52.010;5.546;2023-03-19T04:17:21;5.97;;;4.65;;
67140;SDS011;54058;52.010;5.546;2023-03-19T04:19:47;10.07;;;5.60;;
67140;SDS011;54058;52.010;5.546;2023-03-19T04:22:13;8.65;;;6.25;;
67140;SDS011;54058;52.010;5.546;2023-03-19T04:24:40;9.82;;;7.13;;
67140;SDS011;54058;52.010;5.546;2023-03-19T04:27:06;9.52;;;7.05;;
67140;SDS011;54058;52.010;5.546;2023-03-19T04:29:32;10.17;;;6.43;;
67140;SDS011;54058;52.010;5.546;2023-03-19T04:31:57;10.57;;;6.97;;
67140;SDS011;54058;52.010;5.546;2023-03-19T04:34:23;10.48;;;6.75;;
67140;SDS011;54058;52.010;5.546;2023-03-19T04:36:49;9.95;;;6.95;;
67140;SDS011;54058;52.010;5.546;2023-03-19T04:39:16;9.43;;;6.07;;
67140;SDS011;54058;52.010;5.546;2023-03-19T04:41:42;8.93;;;5.70;;
67140;SDS011;54058;52.010;5.546;2023-03-19T04:44:09;9.00;;;6.05;;
67140;SDS011;54058;52.010;5.546;2023-03-19T04:46:35;7.50;;;5.68;;
67140;SDS011;54058;52.010;5.546;2023-03-19T04:49:00;8.82;;;5.93;;
67140;SDS011;54058;52.010;5.546;2023-03-19T04:51:27;9.52;;;6.07;;
67140;SDS011;54058;52.010;5.546;2023-03-19T04:53:53;9.40;;;6.47;;
67140;SDS011;54058;52.010;5.546;2023-03-19T04:56:19;10.13;;;5.85;;
67140;SDS011;54058;52.010;5.546;2023-03-19T04:58:45;7.97;;;6.40;;
67140;SDS011;54058;52.010;5.546;2023-03-19T05:01:10;13.25;;;6.43;;
67140;SDS011;54058;52.010;5.546;2023-03-19T05:03:36;11.75;;;6.88;;
67140;SDS011;54058;52.010;5.546;2023-03-19T05:06:02;7.93;;;6.05;;
67140;SDS011;54058;52.010;5.546;2023-03-19T05:08:34;9.10;;;6.38;;
67140;SDS011;54058;52.010;5.546;2023-03-19T05:11:02;8.77;;;6.43;;
67140;SDS011;54058;52.010;5.546;2023-03-19T05:13:28;8.48;;;6.20;;
67140;SDS011;54058;52.010;5.546;2023-03-19T05:15:54;7.13;;;5.68;;
67140;SDS011;54058;52.010;5.546;2023-03-19T05:18:20;8.18;;;6.22;;
67140;SDS011;54058;52.010;5.546;2023-03-19T05:20:46;9.13;;;5.82;;
67140;SDS011;54058;52.010;5.546;2023-03-19T05:23:12;8.25;;;5.57;;
67140;SDS011;54058;52.010;5.546;2023-03-19T05:25:41;13.32;;;6.70;;
67140;SDS011;54058;52.010;5.546;2023-03-19T05:28:09;8.40;;;6.75;;
67140;SDS011;54058;52.010;5.546;2023-03-19T05:30:34;9.52;;;6.45;;
67140;SDS011;54058;52.010;5.546;2023-03-19T05:33:00;6.88;;;5.70;;
67140;SDS011;54058;52.010;5.546;2023-03-19T05:35:27;11.93;;;7.10;;
67140;SDS011;54058;52.010;5.546;2023-03-19T05:37:53;9.68;;;6.13;;
67140;SDS011;54058;52.010;5.546;2023-03-19T05:40:19;7.90;;;6.13;;
67140;SDS011;54058;52.010;5.546;2023-03-19T05:42:46;12.18;;;6.82;;
67140;SDS011;54058;52.010;5.546;2023-03-19T05:45:11;10.32;;;7.05;;
67140;SDS011;54058;52.010;5.546;2023-03-19T05:47:38;10.80;;;7.70;;
67140;SDS011;54058;52.010;5.546;2023-03-19T05:50:04;13.80;;;9.25;;
67140;SDS011;54058;52.010;5.546;2023-03-19T05:52:31;14.20;;;9.45;;
67140;SDS011;54058;52.010;5.546;2023-03-19T05:54:56;16.15;;;10.95;;
67140;SDS011;54058;52.010;5.546;2023-03-19T05:57:22;16.17;;;11.27;;
67140;SDS011;54058;52.010;5.546;2023-03-19T05:59:47;22.15;;;14.45;;
67140;SDS011;54058;52.010;5.546;2023-03-19T06:02:13;24.20;;;12.90;;
67140;SDS011;54058;52.010;5.546;2023-03-19T06:04:39;18.13;;;12.40;;
67140;SDS011;54058;52.010;5.546;2023-03-19T06:07:10;21.85;;;13.13;;
67140;SDS011;54058;52.010;5.546;2023-03-19T06:09:35;21.85;;;14.20;;
67140;SDS011;54058;52.010;5.546;2023-03-19T06:12:01;24.15;;;15.20;;
67140;SDS011;54058;52.010;5.546;2023-03-19T06:14:30;26.85;;;15.57;;
67140;SDS011;54058;52.010;5.546;2023-03-19T06:16:56;25.13;;;14.90;;
67140;SDS011;54058;52.010;5.546;2023-03-19T06:19:22;25.17;;;14.68;;
67140;SDS011;54058;52.010;5.546;2023-03-19T06:21:47;23.20;;;14.13;;
67140;SDS011;54058;52.010;5.546;2023-03-19T06:24:16;23.65;;;13.73;;
67140;SDS011;54058;52.010;5.546;2023-03-19T06:26:42;23.73;;;14.10;;
67140;SDS011;54058;52.010;5.546;2023-03-19T06:29:08;23.80;;;14.15;;
67140;SDS011;54058;52.010;5.546;2023-03-19T06:31:33;20.38;;;13.48;;
67140;SDS011;54058;52.010;5.546;2023-03-19T06:33:59;22.52;;;14.40;;
67140;SDS011;54058;52.010;5.546;2023-03-19T06:36:25;21.48;;;12.65;;
67140;SDS011;54058;52.010;5.546;2023-03-19T06:38:51;23.42;;;13.02;;
67140;SDS011;54058;52.010;5.546;2023-03-19T06:41:16;19.38;;;12.20;;
67140;SDS011;54058;52.010;5.546;2023-03-19T06:43:42;22.13;;;13.65;;
67140;SDS011;54058;52.010;5.546;2023-03-19T06:46:08;24.05;;;13.65;;
67140;SDS011;54058;52.010;5.546;2023-03-19T06:48:34;20.80;;;13.82;;
67140;SDS011;54058;52.010;5.546;2023-03-19T06:51:00;26.45;;;15.32;;
67140;SDS011;54058;52.010;5.546;2023-03-19T06:53:26;23.05;;;14.23;;
67140;SDS011;54058;52.010;5.546;2023-03-19T06:55:52;26.02;;;15.90;;
67140;SDS011;54058;52.010;5.546;2023-03-19T06:58:18;30.08;;;16.00;;
67140;SDS011;54058;52.010;5.546;2023-03-19T07:00:44;24.98;;;15.90;;
67140;SDS011;54058;52.010;5.546;2023-03-19T07:03:10;27.90;;;16.83;;
67140;SDS011;54058;52.010;5.546;2023-03-19T07:05:36;29.98;;;17.13;;
67140;SDS011;54058;52.010;5.546;2023-03-19T07:08:01;26.30;;;14.38;;
67140;SDS011;54058;52.010;5.546;2023-03-19T07:10:27;27.23;;;16.48;;
67140;SDS011;54058;52.010;5.546;2023-03-19T07:12:53;29.58;;;17.00;;
67140;SDS011;54058;52.010;5.546;2023-03-19T07:15:19;25.50;;;15.68;;
67140;SDS011;54058;52.010;5.546;2023-03-19T07:17:45;28.38;;;15.82;;
67140;SDS011;54058;52.010;5.546;2023-03-19T07:20:12;27.90;;;15.95;;
67140;SDS011;54058;52.010;5.546;2023-03-19T07:22:38;27.33;;;17.38;;
67140;SDS011;54058;52.010;5.546;2023-03-19T07:25:04;27.88;;;16.88;;
67140;SDS011;54058;52.010;5.546;2023-03-19T07:27:30;32.30;;;19.48;;
67140;SDS011;54058;52.010;5.546;2023-03-19T07:29:57;28.17;;;17.20;;
67140;SDS011;54058;52.010;5.546;2023-03-19T07:32:23;25.90;;;15.73;;
67140;SDS011;54058;52.010;5.546;2023-03-19T07:34:49;28.23;;;17.65;;
67140;SDS011;54058;52.010;5.546;2023-03-19T07:37:15;28.50;;;17.93;;
67140;SDS011;54058;52.010;5.546;2023-03-19T07:39:40;27.83;;;16.85;;
67140;SDS011;54058;52.010;5.546;2023-03-19T07:42:06;33.47;;;19.25;;
67140;SDS011;54058;52.010;5.546;2023-03-19T07:44:32;28.35;;;17.35;;
67140;SDS011;54058;52.010;5.546;2023-03-19T07:46:58;42.97;;;20.65;;
67140;SDS011;54058;52.010;5.546;2023-03-19T07:49:23;34.47;;;20.17;;
67140;SDS011;54058;52.010;5.546;2023-03-19T07:51:49;32.20;;;17.23;;
67140;SDS011;54058;52.010;5.546;2023-03-19T07:54:15;38.38;;;20.48;;
67140;SDS011;54058;52.010;5.546;2023-03-19T07:56:41;33.15;;;20.20;;
67140;SDS011;54058;52.010;5.546;2023-03-19T07:59:07;31.70;;;18.42;;
67140;SDS011;54058;52.010;5.546;2023-03-19T08:01:36;31.23;;;19.17;;
67140;SDS011;54058;52.010;5.546;2023-03-19T08:04:04;30.23;;;19.73;;
67140;SDS011;54058;52.010;5.546;2023-03-19T08:06:30;36.08;;;19.55;;
67140;SDS011;54058;52.010;5.546;2023-03-19T08:09:04;31.88;;;19.55;;
67140;SDS011;54058;52.010;5.546;2023-03-19T08:11:30;37.67;;;20.58;;
67140;SDS011;54058;52.010;5.546;2023-03-19T08:13:59;34.55;;;20.08;;
67140;SDS011;54058;52.010;5.546;2023-03-19T08:16:31;36.75;;;20.80;;
67140;SDS011;54058;52.010;5.546;2023-03-19T08:18:57;40.50;;;22.42;;
67140;SDS011;54058;52.010;5.546;2023-03-19T08:21:26;36.70;;;20.67;;
67140;SDS011;54058;52.010;5.546;2023-03-19T08:23:52;34.25;;;19.70;;
67140;SDS011;54058;52.010;5.546;2023-03-19T08:26:18;36.33;;;21.25;;
67140;SDS011;54058;52.010;5.546;2023-03-19T08:28:46;35.22;;;21.48;;
67140;SDS011;54058;52.010;5.546;2023-03-19T08:31:12;32.97;;;18.42;;
67140;SDS011;54058;52.010;5.546;2023-03-19T08:33:38;37.22;;;19.67;;
67140;SDS011;54058;52.010;5.546;2023-03-19T08:36:06;38.42;;;21.02;;
67140;SDS011;54058;52.010;5.546;2023-03-19T08:38:33;39.58;;;22.27;;
67140;SDS011;54058;52.010;5.546;2023-03-19T08:40:59;35.95;;;20.77;;
67140;SDS011;54058;52.010;5.546;2023-03-19T08:43:28;36.50;;;20.30;;
67140;SDS011;54058;52.010;5.546;2023-03-19T08:45:55;27.60;;;17.40;;
67140;SDS011;54058;52.010;5.546;2023-03-19T08:48:20;35.90;;;20.55;;
67140;SDS011;54058;52.010;5.546;2023-03-19T08:50:51;30.15;;;18.17;;
67140;SDS011;54058;52.010;5.546;2023-03-19T08:53:25;36.95;;;21.08;;
67140;SDS011;54058;52.010;5.546;2023-03-19T08:55:52;33.90;;;18.13;;
67140;SDS011;54058;52.010;5.546;2023-03-19T08:58:19;30.85;;;18.95;;
67140;SDS011;54058;52.010;5.546;2023-03-19T09:00:45;38.85;;;19.38;;
67140;SDS011;54058;52.010;5.546;2023-03-19T09:03:11;30.33;;;19.45;;
67140;SDS011;54058;52.010;5.546;2023-03-19T09:05:37;28.40;;;16.77;;
67140;SDS011;54058;52.010;5.546;2023-03-19T09:08:05;30.65;;;18.40;;
67140;SDS011;54058;52.010;5.546;2023-03-19T09:10:31;28.27;;;17.02;;
67140;SDS011;54058;52.010;5.546;2023-03-19T09:12:57;31.52;;;18.50;;
67140;SDS011;54058;52.010;5.546;2023-03-19T09:15:22;32.72;;;18.10;;
67140;SDS011;54058;52.010;5.546;2023-03-19T09:17:48;32.65;;;19.75;;
67140;SDS011;54058;52.010;5.546;2023-03-19T09:20:14;29.40;;;18.10;;
67140;SDS011;54058;52.010;5.546;2023-03-19T09:22:40;28.63;;;18.13;;
67140;SDS011;54058;52.010;5.546;2023-03-19T09:25:06;31.02;;;17.88;;
67140;SDS011;54058;52.010;5.546;2023-03-19T09:27:32;31.10;;;17.90;;
67140;SDS011;54058;52.010;5.546;2023-03-19T09:29:57;33.35;;;18.90;;
67140;SDS011;54058;52.010;5.546;2023-03-19T09:32:23;30.70;;;18.42;;
67140;SDS011;54058;52.010;5.546;2023-03-19T09:34:49;27.40;;;17.38;;
67140;SDS011;54058;52.010;5.546;2023-03-19T09:37:15;29.58;;;17.17;;
67140;SDS011;54058;52.010;5.546;2023-03-19T09:39:40;29.73;;;17.60;;
67140;SDS011;54058;52.010;5.546;2023-03-19T09:44:54;26.60;;;15.75;;
67140;SDS011;54058;52.010;5.546;2023-03-19T09:49:53;25.35;;;14.93;;
67140;SDS011;54058;52.010;5.546;2023-03-19T09:57:47;26.20;;;15.93;;
67140;SDS011;54058;52.010;5.546;2023-03-19T10:00:24;26.85;;;16.45;;
67140;SDS011;54058;52.010;5.546;2023-03-19T10:06:14;25.65;;;15.20;;
67140;SDS011;54058;52.010;5.546;2023-03-19T10:09:03;20.45;;;13.75;;
67140;SDS011;54058;52.010;5.546;2023-03-19T10:16:49;27.65;;;15.40;;
67140;SDS011;54058;52.010;5.546;2023-03-19T10:19:17;21.88;;;14.25;;
67140;SDS011;54058;52.010;5.546;2023-03-19T10:21:55;27.77;;;15.73;;
67140;SDS011;54058;52.010;5.546;2023-03-19T10:24:38;25.75;;;15.98;;
67140;SDS011;54058;52.010;5.546;2023-03-19T10:27:11;22.48;;;13.45;;
67140;SDS011;54058;52.010;5.546;2023-03-19T10:29:39;25.95;;;15.68;;
67140;SDS011;54058;52.010;5.546;2023-03-19T10:32:18;24.90;;;15.73;;
67140;SDS011;54058;52.010;5.546;2023-03-19T10:35:52;24.20;;;15.05;;
67140;SDS011;54058;52.010;5.546;2023-03-19T10:40:44;28.25;;;14.65;;
67140;SDS011;54058;52.010;5.546;2023-03-19T10:43:21;26.92;;;16.13;;
67140;SDS011;54058;52.010;5.546;2023-03-19T10:45:49;26.73;;;15.73;;
67140;SDS011;54058;52.010;5.546;2023-03-19T10:48:15;25.33;;;14.27;;
67140;SDS011;54058;52.010;5.546;2023-03-19T10:59:04;17.73;;;11.02;;
67140;SDS011;54058;52.010;5.546;2023-03-19T11:01:34;20.90;;;10.75;;
67140;SDS011;54058;52.010;5.546;2023-03-19T11:04:10;18.17;;;12.07;;
67140;SDS011;54058;52.010;5.546;2023-03-19T11:06:49;20.75;;;11.13;;
67140;SDS011;54058;52.010;5.546;2023-03-19T11:09:36;21.38;;;10.93;;
67140;SDS011;54058;52.010;5.546;2023-03-19T11:14:47;19.08;;;10.40;;
67140;SDS011;54058;52.010;5.546;2023-03-19T11:23:16;14.30;;;8.68;;
67140;SDS011;54058;52.010;5.546;2023-03-19T11:25:51;14.48;;;8.88;;
67140;SDS011;54058;52.010;5.546;2023-03-19T11:28:20;18.38;;;8.98;;
67140;SDS011;54058;52.010;5.546;2023-03-19T11:44:05;19.80;;;11.15;;
67140;SDS011;54058;52.010;5.546;2023-03-19T11:46:42;20.50;;;10.88;;
67140;SDS011;54058;52.010;5.546;2023-03-19T11:49:30;18.33;;;10.23;;
67140;SDS011;54058;52.010;5.546;2023-03-19T11:52:32;21.25;;;11.50;;
67140;SDS011;54058;52.010;5.546;2023-03-19T12:00:45;18.27;;;10.63;;
67140;SDS011;54058;52.010;5.546;2023-03-19T12:08:56;20.40;;;12.05;;
67140;SDS011;54058;52.010;5.546;2023-03-19T12:20:12;28.42;;;13.93;;
67140;SDS011;54058;52.010;5.546;2023-03-19T12:22:42;23.42;;;12.80;;
67140;SDS011;54058;52.010;5.546;2023-03-19T12:30:48;25.00;;;11.90;;
67140;SDS011;54058;52.010;5.546;2023-03-19T12:36:17;21.52;;;11.48;;
67140;SDS011;54058;52.010;5.546;2023-03-19T12:38:52;19.90;;;11.35;;
67140;SDS011;54058;52.010;5.546;2023-03-19T12:41:25;19.97;;;10.33;;
67140;SDS011;54058;52.010;5.546;2023-03-19T12:44:01;18.60;;;10.90;;
67140;SDS011;54058;52.010;5.546;2023-03-19T12:46:32;23.50;;;12.35;;
67140;SDS011;54058;52.010;5.546;2023-03-19T12:49:07;21.88;;;11.80;;
67140;SDS011;54058;52.010;5.546;2023-03-19T12:51:41;17.02;;;10.05;;
67140;SDS011;54058;52.010;5.546;2023-03-19T12:54:17;20.17;;;10.60;;
67140;SDS011;54058;52.010;5.546;2023-03-19T12:57:18;23.55;;;11.68;;
67140;SDS011;54058;52.010;5.546;2023-03-19T13:10:35;18.63;;;10.38;;
67140;SDS011;54058;52.010;5.546;2023-03-19T13:13:04;22.23;;;11.75;;
67140;SDS011;54058;52.010;5.546;2023-03-19T13:15:40;25.23;;;12.00;;
67140;SDS011;54058;52.010;5.546;2023-03-19T13:23:49;24.15;;;11.02;;
67140;SDS011;54058;52.010;5.546;2023-03-19T13:26:24;22.40;;;11.98;;
67140;SDS011;54058;52.010;5.546;2023-03-19T13:31:24;18.63;;;11.27;;
67140;SDS011;54058;52.010;5.546;2023-03-19T13:34:15;23.08;;;10.07;;
67140;SDS011;54058;52.010;5.546;2023-03-19T13:36:52;21.85;;;11.18;;
67140;SDS011;54058;52.010;5.546;2023-03-19T13:39:38;24.35;;;11.93;;
67140;SDS011;54058;52.010;5.546;2023-03-19T13:42:15;23.25;;;12.60;;
67140;SDS011;54058;52.010;5.546;2023-03-19T13:44:59;28.30;;;11.63;;
67140;SDS011;54058;52.010;5.546;2023-03-19T13:55:26;21.30;;;11.43;;
67140;SDS011;54058;52.010;5.546;2023-03-19T14:03:13;21.27;;;11.77;;
67140;SDS011;54058;52.010;5.546;2023-03-19T14:05:45;23.98;;;11.80;;
67140;SDS011;54058;52.010;5.546;2023-03-19T14:08:13;23.58;;;11.75;;
67140;SDS011;54058;52.010;5.546;2023-03-19T14:10:48;24.42;;;12.60;;
67140;SDS011;54058;52.010;5.546;2023-03-19T14:13:18;22.48;;;12.52;;
67140;SDS011;54058;52.010;5.546;2023-03-19T14:15:50;23.20;;;11.35;;
67140;SDS011;54058;52.010;5.546;2023-03-19T14:18:22;20.13;;;11.95;;
67140;SDS011;54058;52.010;5.546;2023-03-19T14:20:52;22.83;;;12.60;;
67140;SDS011;54058;52.010;5.546;2023-03-19T14:23:27;21.85;;;11.88;;
67140;SDS011;54058;52.010;5.546;2023-03-19T14:26:10;20.83;;;11.68;;
67140;SDS011;54058;52.010;5.546;2023-03-19T14:28:45;18.42;;;10.80;;
67140;SDS011;54058;52.010;5.546;2023-03-19T14:31:24;18.08;;;11.07;;
67140;SDS011;54058;52.010;5.546;2023-03-19T14:33:52;23.00;;;11.40;;
67140;SDS011;54058;52.010;5.546;2023-03-19T14:36:23;19.92;;;11.38;;
67140;SDS011;54058;52.010;5.546;2023-03-19T14:38:58;18.55;;;10.15;;
67140;SDS011;54058;52.010;5.546;2023-03-19T14:41:26;17.13;;;10.00;;
67140;SDS011;54058;52.010;5.546;2023-03-19T14:50:02;17.27;;;9.32;;
67140;SDS011;54058;52.010;5.546;2023-03-19T14:52:50;16.17;;;9.57;;
67140;SDS011;54058;52.010;5.546;2023-03-19T14:55:35;14.23;;;8.75;;
67140;SDS011;54058;52.010;5.546;2023-03-19T14:58:02;18.33;;;10.05;;
67140;SDS011;54058;52.010;5.546;2023-03-19T15:00:35;19.10;;;10.00;;
67140;SDS011;54058;52.010;5.546;2023-03-19T15:03:40;21.02;;;9.50;;
67140;SDS011;54058;52.010;5.546;2023-03-19T15:06:03;18.27;;;10.00;;
67140;SDS011;54058;52.010;5.546;2023-03-19T15:08:32;16.15;;;8.75;;
67140;SDS011;54058;52.010;5.546;2023-03-19T15:11:05;18.52;;;9.35;;
67140;SDS011;54058;52.010;5.546;2023-03-19T15:19:07;16.40;;;8.88;;
67140;SDS011;54058;52.010;5.546;2023-03-19T15:21:35;15.07;;;8.52;;
67140;SDS011;54058;52.010;5.546;2023-03-19T15:24:01;14.00;;;8.50;;
67140;SDS011;54058;52.010;5.546;2023-03-19T15:26:31;13.02;;;8.55;;
67140;SDS011;54058;52.010;5.546;2023-03-19T15:28:58;14.80;;;8.15;;
67140;SDS011;54058;52.010;5.546;2023-03-19T15:31:39;13.15;;;8.43;;
67140;SDS011;54058;52.010;5.546;2023-03-19T15:34:22;18.27;;;9.50;;
67140;SDS011;54058;52.010;5.546;2023-03-19T15:36:51;13.35;;;8.10;;
67140;SDS011;54058;52.010;5.546;2023-03-19T15:39:21;13.25;;;7.97;;
67140;SDS011;54058;52.010;5.546;2023-03-19T15:41:51;11.35;;;7.30;;
67140;SDS011;54058;52.010;5.546;2023-03-19T15:44:30;12.20;;;7.45;;
67140;SDS011;54058;52.010;5.546;2023-03-19T15:47:05;11.23;;;7.83;;
67140;SDS011;54058;52.010;5.546;2023-03-19T15:49:39;15.30;;;8.30;;
67140;SDS011;54058;52.010;5.546;2023-03-19T15:52:12;13.63;;;8.77;;
67140;SDS011;54058;52.010;5.546;2023-03-19T15:54:41;12.90;;;8.95;;
67140;SDS011;54058;52.010;5.546;2023-03-19T15:57:07;14.40;;;8.37;;
67140;SDS011;54058;52.010;5.546;2023-03-19T15:59:35;12.00;;;8.75;;
67140;SDS011;54058;52.010;5.546;2023-03-19T16:02:03;15.50;;;9.15;;
67140;SDS011;54058;52.010;5.546;2023-03-19T16:04:55;14.85;;;8.73;;
67140;SDS011;54058;52.010;5.546;2023-03-19T16:07:43;18.93;;;10.73;;
67140;SDS011;54058;52.010;5.546;2023-03-19T16:12:52;18.88;;;11.07;;
67140;SDS011;54058;52.010;5.546;2023-03-19T16:17:47;16.50;;;10.13;;
67140;SDS011;54058;52.010;5.546;2023-03-19T16:20:14;15.73;;;10.37;;
67140;SDS011;54058;52.010;5.546;2023-03-19T16:22:40;18.58;;;11.40;;
67140;SDS011;54058;52.010;5.546;2023-03-19T16:25:13;17.67;;;11.13;;
67140;SDS011;54058;52.010;5.546;2023-03-19T16:27:42;18.38;;;10.68;;
67140;SDS011;54058;52.010;5.546;2023-03-19T16:30:19;14.45;;;9.30;;
67140;SDS011;54058;52.010;5.546;2023-03-19T16:33:00;17.77;;;9.90;;
67140;SDS011;54058;52.010;5.546;2023-03-19T16:35:28;14.48;;;9.57;;
67140;SDS011;54058;52.010;5.546;2023-03-19T16:40:46;14.98;;;8.55;;
67140;SDS011;54058;52.010;5.546;2023-03-19T16:43:23;16.85;;;8.25;;
67140;SDS011;54058;52.010;5.546;2023-03-19T16:46:05;14.82;;;8.05;;
67140;SDS011;54058;52.010;5.546;2023-03-19T16:48:36;10.93;;;7.60;;
67140;SDS011;54058;52.010;5.546;2023-03-19T16:51:03;16.50;;;8.18;;
67140;SDS011;54058;52.010;5.546;2023-03-19T16:53:29;11.85;;;7.95;;
67140;SDS011;54058;52.010;5.546;2023-03-19T16:55:56;12.73;;;8.55;;
67140;SDS011;54058;52.010;5.546;2023-03-19T17:00:52;11.23;;;7.28;;
67140;SDS011;54058;52.010;5.546;2023-03-19T17:03:17;11.48;;;7.65;;
67140;SDS011;54058;52.010;5.546;2023-03-19T17:05:44;14.13;;;8.35;;
67140;SDS011;54058;52.010;5.546;2023-03-19T17:08:10;13.57;;;8.07;;
67140;SDS011;54058;52.010;5.546;2023-03-19T17:10:39;14.88;;;8.05;;
67140;SDS011;54058;52.010;5.546;2023-03-19T17:13:10;11.63;;;7.65;;
67140;SDS011;54058;52.010;5.546;2023-03-19T17:15:47;15.25;;;8.75;;
67140;SDS011;54058;52.010;5.546;2023-03-19T17:18:18;15.38;;;7.78;;